Time;durP1;ratioP1;P1;durP2;ratioP2;P2;SDS_P1;SDS_P2;PMS_P1;PMS_P2;Temp;Humidity;BMP_temperature;BMP_pressure;BME280_temperature;BME280_humidity;BME280_pressure;Samples;Min_cycle;Max_cycle;Signal;HPM_P1;HPM_P2
2022/07/01 00:02:53;;;;;;;;;;;;;;;16.59;58.53809;101438.9;;;;-81
2022/07/01 00:07:54;;;;;;;;;;;;;;;16.58;58.38965;101450.8;;;;-82
2022/07/01 00:09:31;;;;;;;2;0.8;;;;;;;;;;;;;-84
2022/07/01 00:12:53;;;;;;;;;;;;;;;16.54;58.32715;101455.6;;;;-83
2022/07/01 00:17:54;;;;;;;;;;;;;;;16.5;58.72949;101455.9;;;;-79
2022/07/01 00:22:53;;;;;;;;;;;;;;;16.47;58.41797;101449.7;;;;-83
2022/07/01 00:27:54;;;;;;;;;;;;;;;16.41;58.45703;101446.8;;;;-81
2022/07/01 00:32:53;;;;;;;;;;;;;;;16.27;58.47168;101429.1;;;;-84
2022/07/01 00:37:53;;;;;;;;;;;;;;;16.29;58.56445;101441;;;;-83
2022/07/01 00:39:41;;;;;;;1.7;0.8;;;;;;;;;;;;;-84
2022/07/01 00:42:55;;;;;;;;;;;;;;;16.25;58.93262;101446.3;;;;-82
2022/07/01 00:47:53;;;;;;;;;;;;;;;16.19;59.05957;101455.7;;;;-83
2022/07/01 00:52:53;;;;;;;;;;;;;;;16.17;59.30566;101468.9;;;;-82
2022/07/01 00:57:53;;;;;;;;;;;;;;;16.12;59.625;101483.4;;;;-82
2022/07/01 01:02:53;;;;;;;;;;;;;;;16.09;60.07227;101479.5;;;;-82
2022/07/01 01:07:56;;;;;;;;;;;;;;;16.03;60.49316;101481.4;;;;-82
2022/07/01 01:09:35;;;;;;;3;1.3;;;;;;;;;;;;;-83
2022/07/01 01:12:54;;;;;;;;;;;;;;;15.96;60.92188;101481.2;;;;-81
2022/07/01 01:17:54;;;;;;;;;;;;;;;15.93;60.88477;101476.1;;;;-81
2022/07/01 01:22:54;;;;;;;;;;;;;;;15.87;60.56152;101469.3;;;;-82
2022/07/01 01:27:53;;;;;;;;;;;;;;;15.83;60.81445;101463.1;;;;-83
2022/07/01 01:32:56;;;;;;;;;;;;;;;15.75;61.51172;101461.6;;;;-83
2022/07/01 01:37:55;;;;;;;;;;;;;;;15.69;61.97656;101456.8;;;;-84
2022/07/01 01:39:38;;;;;;;7.1;3.9;;;;;;;;;;;;;-82
2022/07/01 01:42:54;;;;;;;;;;;;;;;15.67;62.16699;101471.9;;;;-82
2022/07/01 01:47:56;;;;;;;;;;;;;;;15.66;61.70313;101478.3;;;;-84
2022/07/01 01:52:53;;;;;;;;;;;;;;;15.61;61.82031;101481.5;;;;-83
2022/07/01 01:57:53;;;;;;;;;;;;;;;15.58;61.71484;101493.8;;;;-83
2022/07/01 02:02:53;;;;;;;;;;;;;;;15.57;61.9375;101500.6;;;;-82
2022/07/01 02:07:53;;;;;;;;;;;;;;;15.52;61.85156;101498;;;;-80
2022/07/01 02:09:39;;;;;;;8.4;5.2;;;;;;;;;;;;;-82
2022/07/01 02:12:53;;;;;;;;;;;;;;;15.46;61.95703;101495.8;;;;-82
2022/07/01 02:17:56;;;;;;;;;;;;;;;15.39;62.75586;101508.8;;;;-85
2022/07/01 02:22:56;;;;;;;;;;;;;;;15.38;63.27246;101500.3;;;;-82
2022/07/01 02:27:53;;;;;;;;;;;;;;;15.34;64.1543;101513.6;;;;-80
2022/07/01 02:32:53;;;;;;;;;;;;;;;15.3;64.08203;101509.3;;;;-82
2022/07/01 02:37:55;;;;;;;;;;;;;;;15.31;64.19531;101510;;;;-82
2022/07/01 02:39:43;;;;;;;13;7.1;;;;;;;;;;;;;-82
2022/07/01 02:42:54;;;;;;;;;;;;;;;15.27;64.67188;101513.7;;;;-84
2022/07/01 02:47:54;;;;;;;;;;;;;;;15.24;64.62305;101511.1;;;;-83
2022/07/01 02:52:56;;;;;;;;;;;;;;;15.21;65.38281;101508.7;;;;-82
2022/07/01 02:57:55;;;;;;;;;;;;;;;15.19;65.11035;101510.6;;;;-81
2022/07/01 03:02:54;;;;;;;;;;;;;;;15.13;65.53906;101528.1;;;;-81
2022/07/01 03:07:57;;;;;;;;;;;;;;;15.11;65.61523;101526;;;;-84
2022/07/01 03:09:44;;;;;;;12.7;7.1;;;;;;;;;;;;;-82
2022/07/01 03:12:53;;;;;;;;;;;;;;;15.09;65.30957;101538.6;;;;-83
2022/07/01 03:18:03;;;;;;;;;;;;;;;15.05;65.98633;101534;;;;-81
2022/07/01 03:22:54;;;;;;;;;;;;;;;15.03;65.69336;101502.9;;;;-84
2022/07/01 03:27:53;;;;;;;;;;;;;;;15.03;65.69141;101500.1;;;;-85
2022/07/01 03:32:53;;;;;;;;;;;;;;;15.02;65.54395;101504.5;;;;-83
2022/07/01 03:37:53;;;;;;;;;;;;;;;14.99;65.38477;101505.2;;;;-84
2022/07/01 03:39:46;;;;;;;11.6;6.1;;;;;;;;;;;;;-82
2022/07/01 03:42:53;;;;;;;;;;;;;;;14.97;65.7959;101501.6;;;;-83
2022/07/01 03:47:56;;;;;;;;;;;;;;;14.95;65.40039;101508.2;;;;-81
2022/07/01 03:57:53;;;;;;;;;;;;;;;14.93;65.08301;101513.1;;;;-82
2022/07/01 04:02:53;;;;;;;;;;;;;;;14.91;65.15918;101516.2;;;;-84
2022/07/01 04:07:53;;;;;;;;;;;;;;;14.89;64.86426;101523.2;;;;-83
2022/07/01 04:09:46;;;;;;;10.3;5.9;;;;;;;;;;;;;-82
2022/07/01 04:12:52;;;;;;;;;;;;;;;14.89;65.41504;101536.6;;;;-81
2022/07/01 04:17:54;;;;;;;;;;;;;;;14.88;65.4248;101551.4;;;;-82
2022/07/01 04:22:53;;;;;;;;;;;;;;;14.85;65.99121;101543.4;;;;-81
2022/07/01 04:27:53;;;;;;;;;;;;;;;14.86;66.44336;101554.2;;;;-84
2022/07/01 04:32:53;;;;;;;;;;;;;;;14.88;66.79395;101559.6;;;;-82
2022/07/01 04:37:57;;;;;;;;;;;;;;;14.9;67.23242;101557.2;;;;-83
2022/07/01 04:39:46;;;;;;;11.3;5.4;;;;;;;;;;;;;-83
2022/07/01 04:42:55;;;;;;;;;;;;;;;14.95;67.31836;101567.4;;;;-81
2022/07/01 04:48:01;;;;;;;;;;;;;;;14.98;67.6377;101565.3;;;;-82
2022/07/01 04:52:53;;;;;;;;;;;;;;;15.02;68.16113;101574.1;;;;-83
2022/07/01 04:57:53;;;;;;;;;;;;;;;15.06;67.91992;101578.9;;;;-83
2022/07/01 05:02:53;;;;;;;;;;;;;;;15.08;68.23633;101577.2;;;;-83
2022/07/01 05:07:53;;;;;;;;;;;;;;;15.14;68.48242;101566.8;;;;-81
2022/07/01 05:09:55;;;;;;;8.9;4.1;;;;;;;;;;;;;-83
2022/07/01 05:12:53;;;;;;;;;;;;;;;15.17;67.41016;101565.8;;;;-83
2022/07/01 05:22:53;;;;;;;;;;;;;;;15.29;68.25781;101582.4;;;;-84
2022/07/01 05:27:56;;;;;;;;;;;;;;;15.56;68.3125;101594.4;;;;-82
2022/07/01 05:32:54;;;;;;;;;;;;;;;16.12;68.70215;101590.5;;;;-83
2022/07/01 05:37:53;;;;;;;;;;;;;;;16.46;67.04297;101595.3;;;;-82
2022/07/01 05:39:52;;;;;;;6.7;3.4;;;;;;;;;;;;;-82
2022/07/01 05:42:54;;;;;;;;;;;;;;;16.69;66.59473;101588.1;;;;-83
2022/07/01 05:47:56;;;;;;;;;;;;;;;16.91;65.76953;101583.5;;;;-83
2022/07/01 05:52:58;;;;;;;;;;;;;;;17.01;65.10742;101580;;;;-82
2022/07/01 05:57:54;;;;;;;;;;;;;;;17.1;64.61328;101584.5;;;;-83
2022/07/01 06:02:58;;;;;;;;;;;;;;;17.29;64.87695;101583.6;;;;-85
2022/07/01 06:07:53;;;;;;;;;;;;;;;17.59;64.20996;101580.5;;;;-86
2022/07/01 06:09:55;;;;;;;7.9;3.1;;;;;;;;;;;;;-84
2022/07/01 06:12:55;;;;;;;;;;;;;;;17.66;63.88184;101577.6;;;;-84
2022/07/01 06:17:57;;;;;;;;;;;;;;;17.63;64.39746;101576.8;;;;-83
2022/07/01 06:22:53;;;;;;;;;;;;;;;17.67;64.78711;101577.6;;;;-83
2022/07/01 06:27:55;;;;;;;;;;;;;;;17.82;64.69629;101578.3;;;;-85
2022/07/01 06:32:53;;;;;;;;;;;;;;;17.91;64.44824;101582.8;;;;-85
2022/07/01 06:37:53;;;;;;;;;;;;;;;18.1;64.36426;101586.6;;;;-82
2022/07/01 06:39:53;;;;;;;9.7;3;;;;;;;;;;;;;-84
2022/07/01 06:42:55;;;;;;;;;;;;;;;18.42;63.52637;101587.5;;;;-82
2022/07/01 06:47:55;;;;;;;;;;;;;;;18.85;63.08984;101581.9;;;;-83
2022/07/01 06:52:53;;;;;;;;;;;;;;;19.41;61.81836;101575.9;;;;-84
2022/07/01 06:57:55;;;;;;;;;;;;;;;19.96;60.99707;101580.8;;;;-84
2022/07/01 07:02:53;;;;;;;;;;;;;;;20.4;59.61133;101577.9;;;;-82
2022/07/01 07:07:54;;;;;;;;;;;;;;;20.73;58.57324;101574.6;;;;-84
2022/07/01 07:09:58;;;;;;;6.6;2.4;;;;;;;;;;;;;-84
2022/07/01 07:13:00;;;;;;;;;;;;;;;21;57.24902;101575.9;;;;-85
2022/07/01 07:17:57;;;;;;;;;;;;;;;21.06;57.14453;101583.7;;;;-85
2022/07/01 07:22:55;;;;;;;;;;;;;;;21.15;56.83496;101584.7;;;;-86
2022/07/01 07:27:56;;;;;;;;;;;;;;;21.19;56.13379;101595;;;;-85
2022/07/01 07:32:53;;;;;;;;;;;;;;;21.07;56.12988;101599.8;;;;-84
2022/07/01 07:37:53;;;;;;;;;;;;;;;21.02;56.03125;101608.8;;;;-84
2022/07/01 07:40:00;;;;;;;5.9;1.5;;;;;;;;;;;;;-84
2022/07/01 07:43:19;;;;;;;;;;;;;;;21;55.79004;101617.8;;;;-83
2022/07/01 07:48:08;;;;;;;;;;;;;;;21.08;55.31934;101619.4;;;;-85
2022/07/01 07:52:56;;;;;;;;;;;;;;;21.08;54.86328;101630.9;;;;-84
2022/07/01 07:58:02;;;;;;;;;;;;;;;20.87;54.6543;101643.9;;;;-84
2022/07/01 08:02:54;;;;;;;;;;;;;;;20.64;54.85449;101633.8;;;;-85
2022/07/01 08:07:53;;;;;;;;;;;;;;;20.46;54.62793;101628.4;;;;-83
2022/07/01 08:10:01;;;;;;;3.5;0.8;;;;;;;;;;;;;-84
2022/07/01 08:12:59;;;;;;;;;;;;;;;20.47;54.77734;101633;;;;-82
2022/07/01 08:17:58;;;;;;;;;;;;;;;20.65;54.05762;101634.4;;;;-85
2022/07/01 08:22:53;;;;;;;;;;;;;;;20.71;53.52832;101636.9;;;;-85
2022/07/01 08:27:57;;;;;;;;;;;;;;;20.62;53.37988;101651.2;;;;-84
2022/07/01 08:32:54;;;;;;;;;;;;;;;20.68;53.09082;101665.1;;;;-84
2022/07/01 08:37:56;;;;;;;;;;;;;;;20.74;52.15039;101663.8;;;;-84
2022/07/01 08:40:04;;;;;;;1.8;0.7;;;;;;;;;;;;;-86
2022/07/01 08:42:54;;;;;;;;;;;;;;;20.99;52.22559;101664.1;;;;-85
2022/07/01 08:48:12;;;;;;;;;;;;;;;21.47;51.58398;101678.2;;;;-86
2022/07/01 08:52:53;;;;;;;;;;;;;;;21.86;49.89844;101683.5;;;;-84
2022/07/01 08:57:56;;;;;;;;;;;;;;;22.32;49.27344;101688.7;;;;-84
2022/07/01 09:02:58;;;;;;;;;;;;;;;22.72;47.66406;101682.9;;;;-85
2022/07/01 09:08:06;;;;;;;;;;;;;;;23.11;47.21094;101689.6;;;;-84
2022/07/01 09:10:17;;;;;;;4.4;0.6;;;;;;;;;;;;;-85
2022/07/01 09:12:58;;;;;;;;;;;;;;;23.44;46.2334;101694.6;;;;-85
2022/07/01 09:17:53;;;;;;;;;;;;;;;23.79;45.73926;101702;;;;-83
2022/07/01 09:23:04;;;;;;;;;;;;;;;24.23;45.38086;101716.7;;;;-83
2022/07/01 09:28:35;;;;;;;;;;;;;;;24.82;44.43555;101714.7;;;;-83
2022/07/01 09:32:23;;;;;;;;;;;;;;;24.71;43.66211;101714.9;;;;-85
2022/07/01 09:37:24;;;;;;;;;;;;;;;24.84;42.7041;101716.3;;;;-86
2022/07/01 09:40:41;;;;;;;;;;;;;;;;;;;;;
2022/07/01 09:42:33;;;;;;;;;;;;;;;24.97;42.74023;101718.8;;;;-86
2022/07/01 09:47:22;;;;;;;;;;;;;;;25.19;42.49414;101718.7;;;;-87
2022/07/01 09:52:34;;;;;;;;;;;;;;;25.44;41.82324;101710.2;;;;-87
2022/07/01 09:57:20;;;;;;;;;;;;;;;25.72;41.43262;101698.6;;;;-85
2022/07/01 10:02:22;;;;;;;;;;;;;;;25.84;40.50488;101703.7;;;;-86
2022/07/01 10:07:32;;;;;;;;;;;;;;;26.01;40.47266;101724.6;;;;-86
2022/07/01 10:10:21;;;;;;;3.6;0.7;;;;;;;;;;;;;-84
2022/07/01 10:12:33;;;;;;;;;;;;;;;25.82;40.2373;101726.9;;;;-86
2022/07/01 10:17:34;;;;;;;;;;;;;;;25.63;40.78711;101729.5;;;;-86
2022/07/01 10:22:35;;;;;;;;;;;;;;;25.56;40.98926;101730.1;;;;-85
2022/07/01 10:27:29;;;;;;;;;;;;;;;25.54;40.43164;101737.1;;;;-85
2022/07/01 10:32:33;;;;;;;;;;;;;;;25.41;40.92969;101741;;;;-85
2022/07/01 10:37:22;;;;;;;;;;;;;;;25.26;41.52832;101745.5;;;;-85
2022/07/01 10:40:18;;;;;;;3.9;0.9;;;;;;;;;;;;;-86
2022/07/01 10:42:20;;;;;;;;;;;;;;;25.27;42.45605;101756.1;;;;-85
2022/07/01 10:47:25;;;;;;;;;;;;;;;25.28;42.14453;101756.8;;;;-89
2022/07/01 10:52:44;;;;;;;;;;;;;;;25.16;41.9707;101762.4;;;;-86
2022/07/01 10:57:40;;;;;;;;;;;;;;;24.94;42.5625;101763.9;;;;-86
2022/07/01 11:02:24;;;;;;;;;;;;;;;24.78;42.72168;101769.1;;;;-86
2022/07/01 11:07:22;;;;;;;;;;;;;;;24.91;43.14941;101765.1;;;;-85
2022/07/01 11:10:28;;;;;;;5.1;0.8;;;;;;;;;;;;;-83
2022/07/01 11:12:33;;;;;;;;;;;;;;;25.28;42.98926;101760.8;;;;-87
2022/07/01 11:50:30;;;;;;;;;;;;;;;27.18;38.68262;101757;;;;-93
2022/07/01 11:55:00;;;;;;;;;;;;;;;26.9;39.54297;101765.1;;;;-93
2022/07/01 11:59:54;;;;;;;;;;;;;;;27.03;39.18164;101755.1;;;;-93
2022/07/01 12:05:01;;;;;;;;;;;;;;;27.19;38.89258;101761.8;;;;-94
2022/07/01 12:20:08;;;;;;;;;;;;;;;26.77;37.96289;101767.4;;;;-94
2022/07/01 12:25:17;;;;;;;;;;;;;;;26.57;38.46777;101767.5;;;;-93
2022/07/01 12:27:40;;;;;;;;;;;;;;;;;;;;;
2022/07/01 12:30:34;;;;;;;;;;;;;;;26.66;38.68555;101765.1;;;;-82
2022/07/01 12:33:40;;;;;;;;;;;;;;;26.2;39.21484;101756.7;;;;-84
2022/07/01 12:38:40;;;;;;;;;;;;;;;26.04;39.27051;101774;;;;-85
2022/07/01 12:40:35;;;;;;;3.6;0.8;;;;;;;;;;;;;-85
2022/07/01 12:43:42;;;;;;;;;;;;;;;25.79;39.49219;101772.3;;;;-86
2022/07/01 12:48:52;;;;;;;;;;;;;;;25.59;39.24219;101780.6;;;;-86
2022/07/01 12:53:54;;;;;;;;;;;;;;;25.48;39.14063;101780.6;;;;-87
2022/07/01 12:58:40;;;;;;;;;;;;;;;25.44;39.14844;101783.3;;;;-85
2022/07/01 13:04:47;;;;;;;;;;;;;;;25.8;39.08789;101774.9;;;;-84
2022/07/01 13:08:56;;;;;;;;;;;;;;;;;;;;;
2022/07/01 13:10:44;;;;;;;2.5;0.7;;;;;;;;;;;;;-84
2022/07/01 13:13:29;;;;;;;;;;;;;;;25.63;39.29199;101791;;;;-84
2022/07/01 13:18:36;;;;;;;;;;;;;;;25.54;39.44629;101791;;;;-85
2022/07/01 13:30:15;;;;;;;;;;;;;;;25.48;39.78906;101798.4;;;;-85
2022/07/01 13:33:21;;;;;;;;;;;;;;;25.09;40.50684;101800.5;;;;-86
2022/07/01 13:38:44;;;;;;;;;;;;;;;24.96;40.65723;101796.8;;;;-85
2022/07/01 13:40:44;;;;;;;3.3;0.9;;;;;;;;;;;;;-86
2022/07/01 13:59:18;;;;;;;;;;;;;;;25.95;39.4834;101814.4;;;;-76
2022/07/01 14:02:25;;;;;;;;;;;;;;;25.83;39.53027;101806.3;;;;-79
2022/07/01 14:07:27;;;;;;;;;;;;;;;26.01;39.19922;101818.8;;;;-79
2022/07/01 14:10:44;;;;;;;3.4;0.7;;;;;;;;;;;;;-78
2022/07/01 14:12:25;;;;;;;;;;;;;;;26.1;38.77637;101817;;;;-79
2022/07/01 14:17:25;;;;;;;;;;;;;;;26.12;38.74414;101826.1;;;;-76
2022/07/01 14:22:25;;;;;;;;;;;;;;;26.26;38.29102;101833.9;;;;-78
2022/07/01 14:27:25;;;;;;;;;;;;;;;26.29;38.38574;101834.9;;;;-80
2022/07/01 14:32:27;;;;;;;;;;;;;;;26.41;38.15332;101836.7;;;;-77
2022/07/01 14:37:26;;;;;;;;;;;;;;;26.49;37.47461;101841.3;;;;-80
2022/07/01 14:40:47;;;;;;;2.4;0.7;;;;;;;;;;;;;-79
2022/07/01 14:42:25;;;;;;;;;;;;;;;26.56;37.24707;101858.6;;;;-77
2022/07/01 14:47:25;;;;;;;;;;;;;;;26.67;37.45508;101841;;;;-79
2022/07/01 14:52:25;;;;;;;;;;;;;;;26.89;37.42578;101855.9;;;;-80
2022/07/01 14:57:25;;;;;;;;;;;;;;;26.9;37.15918;101852.7;;;;-78
2022/07/01 15:02:25;;;;;;;;;;;;;;;26.91;36.96191;101849.4;;;;-78
2022/07/01 15:07:25;;;;;;;;;;;;;;;26.98;37.29297;101849.5;;;;-79
2022/07/01 15:10:50;;;;;;;3.2;0.7;;;;;;;;;;;;;-78
2022/07/01 15:12:26;;;;;;;;;;;;;;;27.07;37.19727;101849.4;;;;-79
2022/07/01 15:17:25;;;;;;;;;;;;;;;27.17;36.90234;101855.8;;;;-81
2022/07/01 15:22:25;;;;;;;;;;;;;;;27.19;36.75195;101847.4;;;;-78
2022/07/01 15:27:25;;;;;;;;;;;;;;;27.21;36.48633;101854.1;;;;-77
2022/07/01 15:32:27;;;;;;;;;;;;;;;27.17;36.37793;101862.4;;;;-78
2022/07/01 15:37:25;;;;;;;;;;;;;;;27.1;35.82617;101861;;;;-77
2022/07/01 15:40:57;;;;;;;2.9;0.6;;;;;;;;;;;;;-78
2022/07/01 15:42:26;;;;;;;;;;;;;;;27.09;35.81348;101879.2;;;;-78
2022/07/01 15:52:25;;;;;;;;;;;;;;;26.94;35.32422;101874.4;;;;-79
2022/07/01 15:57:25;;;;;;;;;;;;;;;26.87;35.20313;101881.9;;;;-78
2022/07/01 16:02:25;;;;;;;;;;;;;;;26.84;35.16602;101898.4;;;;-79
2022/07/01 16:07:28;;;;;;;;;;;;;;;26.78;34.80078;101893.9;;;;-77
2022/07/01 16:11:02;;;;;;;1.2;0.5;;;;;;;;;;;;;-78
2022/07/01 16:12:25;;;;;;;;;;;;;;;26.73;35.05273;101896.9;;;;-79
2022/07/01 16:17:26;;;;;;;;;;;;;;;26.66;34.7207;101892.3;;;;-79
2022/07/01 16:22:26;;;;;;;;;;;;;;;26.58;34.3418;101897.9;;;;-78
2022/07/01 16:27:25;;;;;;;;;;;;;;;26.49;34.73047;101904.9;;;;-78
2022/07/01 16:32:25;;;;;;;;;;;;;;;26.44;34.95996;101907.8;;;;-77
2022/07/01 16:37:28;;;;;;;;;;;;;;;26.36;34.94141;101903.6;;;;-77
2022/07/01 16:41:06;;;;;;;1;0.4;;;;;;;;;;;;;-78
2022/07/01 16:42:27;;;;;;;;;;;;;;;26.3;34.90234;101908.9;;;;-78
2022/07/01 16:47:29;;;;;;;;;;;;;;;26.2;35.0459;101908.2;;;;-78
2022/07/01 16:52:25;;;;;;;;;;;;;;;26.08;35.02539;101912.5;;;;-81
2022/07/01 16:57:27;;;;;;;;;;;;;;;25.92;35.4082;101912.4;;;;-77
2022/07/01 17:02:27;;;;;;;;;;;;;;;25.75;35.43945;101919.8;;;;-79
2022/07/01 17:07:25;;;;;;;;;;;;;;;25.58;35.86816;101917.8;;;;-80
2022/07/01 17:11:05;;;;;;;2.3;0.7;;;;;;;;;;;;;-79
2022/07/01 17:12:25;;;;;;;;;;;;;;;25.45;36.05469;101919.4;;;;-77
2022/07/01 17:17:25;;;;;;;;;;;;;;;25.31;36.33301;101913.5;;;;-79
2022/07/01 17:22:30;;;;;;;;;;;;;;;25.15;36.30859;101920.1;;;;-78
2022/07/01 17:27:30;;;;;;;;;;;;;;;25.03;36.57715;101931.9;;;;-79
2022/07/01 17:32:27;;;;;;;;;;;;;;;24.87;36.5752;101928.9;;;;-78
2022/07/01 17:37:25;;;;;;;;;;;;;;;24.7;36.71289;101932.3;;;;-77
2022/07/01 17:41:11;;;;;;;2.6;0.8;;;;;;;;;;;;;-80
2022/07/01 17:42:25;;;;;;;;;;;;;;;24.56;37.0127;101936.7;;;;-77
2022/07/01 17:47:25;;;;;;;;;;;;;;;24.41;37.10547;101942.6;;;;-77
2022/07/01 17:52:27;;;;;;;;;;;;;;;24.26;37.48535;101946.9;;;;-78
2022/07/01 17:57:27;;;;;;;;;;;;;;;24.12;37.79785;101955.1;;;;-77
2022/07/01 18:02:25;;;;;;;;;;;;;;;23.94;37.74707;101955.7;;;;-77
2022/07/01 18:07:25;;;;;;;;;;;;;;;23.75;37.92773;101955.7;;;;-79
2022/07/01 18:11:15;;;;;;;3.3;0.7;;;;;;;;;;;;;-80
2022/07/01 18:12:28;;;;;;;;;;;;;;;23.56;38.00391;101962.5;;;;-80
2022/07/01 18:17:29;;;;;;;;;;;;;;;23.39;37.88574;101959.4;;;;-79
2022/07/01 18:22:28;;;;;;;;;;;;;;;23.18;37.77637;101961.6;;;;-78
2022/07/01 18:27:28;;;;;;;;;;;;;;;23.01;37.83105;101964.1;;;;-78
2022/07/01 18:32:26;;;;;;;;;;;;;;;22.86;37.56445;101957.9;;;;-78
2022/07/01 18:37:25;;;;;;;;;;;;;;;22.74;37.54297;101962.6;;;;-78
2022/07/01 18:41:16;;;;;;;2.7;0.7;;;;;;;;;;;;;-79
2022/07/01 18:42:25;;;;;;;;;;;;;;;22.62;37.47461;101968.8;;;;-79
2022/07/01 18:47:25;;;;;;;;;;;;;;;22.53;37.80176;101963.5;;;;-79
2022/07/01 18:52:25;;;;;;;;;;;;;;;22.42;37.75781;101970.2;;;;-79
2022/07/01 18:57:25;;;;;;;;;;;;;;;22.28;37.79199;101967.6;;;;-80
2022/07/01 19:02:26;;;;;;;;;;;;;;;22.08;37.89063;101971.5;;;;-80
2022/07/01 19:07:25;;;;;;;;;;;;;;;21.86;38.1582;101978.2;;;;-78
2022/07/01 19:11:19;;;;;;;2.3;0.8;;;;;;;;;;;;;-79
2022/07/01 19:12:25;;;;;;;;;;;;;;;21.59;38.20508;101975.9;;;;-77
2022/07/01 19:17:25;;;;;;;;;;;;;;;21.34;38.40234;101983.8;;;;-78
2022/07/01 19:22:25;;;;;;;;;;;;;;;21.05;38.74316;101989.2;;;;-78
2022/07/01 19:27:25;;;;;;;;;;;;;;;20.81;38.98633;102000.6;;;;-78
2022/07/01 19:32:25;;;;;;;;;;;;;;;20.56;39.35449;102004.5;;;;-79
2022/07/01 19:37:25;;;;;;;;;;;;;;;20.3;39.64063;102007.6;;;;-79
2022/07/01 19:41:22;;;;;;;2.7;0.7;;;;;;;;;;;;;-77
2022/07/01 19:42:27;;;;;;;;;;;;;;;20.03;40.29102;102016.3;;;;-78
2022/07/01 19:47:25;;;;;;;;;;;;;;;19.77;41;102018.7;;;;-80
2022/07/01 19:52:28;;;;;;;;;;;;;;;19.55;41.84766;102028.3;;;;-78
2022/07/01 19:57:25;;;;;;;;;;;;;;;19.34;42.79883;102033.4;;;;-79
2022/07/01 20:02:28;;;;;;;;;;;;;;;19.17;43.76367;102037.1;;;;-79
2022/07/01 20:07:26;;;;;;;;;;;;;;;18.99;44.33789;102048.2;;;;-78
2022/07/01 20:11:25;;;;;;;4.1;0.9;;;;;;;;;;;;;-81
2022/07/01 20:12:26;;;;;;;;;;;;;;;18.86;44.96289;102056.6;;;;-78
2022/07/01 20:17:25;;;;;;;;;;;;;;;18.69;45.23047;102062.1;;;;-81
2022/07/01 20:22:25;;;;;;;;;;;;;;;18.56;45.42188;102076.2;;;;-79
2022/07/01 20:27:25;;;;;;;;;;;;;;;18.41;45.86328;102073.8;;;;-79
2022/07/01 20:32:25;;;;;;;;;;;;;;;18.25;46.15332;102078.4;;;;-79
2022/07/01 20:37:25;;;;;;;;;;;;;;;18.09;46.11328;102087.7;;;;-79
2022/07/01 20:41:26;;;;;;;3.9;0.9;;;;;;;;;;;;;-79
2022/07/01 20:42:25;;;;;;;;;;;;;;;17.96;46.69043;102088.4;;;;-78
2022/07/01 20:47:28;;;;;;;;;;;;;;;17.81;46.52734;102094.8;;;;-78
2022/07/01 20:52:25;;;;;;;;;;;;;;;17.67;46.93457;102092.3;;;;-79
2022/07/01 20:57:25;;;;;;;;;;;;;;;17.54;46.73828;102091.8;;;;-79
2022/07/01 21:02:25;;;;;;;;;;;;;;;17.42;47.32617;102101;;;;-79
2022/07/01 21:07:25;;;;;;;;;;;;;;;17.28;47.4248;102096.3;;;;-79
2022/07/01 21:11:28;;;;;;;6.2;1.1;;;;;;;;;;;;;-79
2022/07/01 21:12:25;;;;;;;;;;;;;;;17.21;47.74707;102099.2;;;;-79
2022/07/01 21:17:25;;;;;;;;;;;;;;;17.11;47.91797;102099.7;;;;-79
2022/07/01 21:22:25;;;;;;;;;;;;;;;17.02;47.6123;102102;;;;-80
2022/07/01 21:27:25;;;;;;;;;;;;;;;16.89;47.9502;102100.4;;;;-79
2022/07/01 21:32:25;;;;;;;;;;;;;;;16.78;48.51758;102108.3;;;;-79
2022/07/01 21:37:25;;;;;;;;;;;;;;;16.7;48.20215;102117.9;;;;-81
2022/07/01 21:41:38;;;;;;;4;1;;;;;;;;;;;;;-84
2022/07/01 21:42:31;;;;;;;;;;;;;;;16.62;48.35156;102122;;;;-85
2022/07/01 21:47:26;;;;;;;;;;;;;;;16.57;48.77539;102124.7;;;;-84
2022/07/01 21:52:26;;;;;;;;;;;;;;;16.51;48.63379;102127.5;;;;-85
2022/07/01 21:57:30;;;;;;;;;;;;;;;16.42;48.73633;102128.9;;;;-85
2022/07/01 22:02:29;;;;;;;;;;;;;;;16.37;48.70898;102131.7;;;;-83
2022/07/01 22:07:44;;;;;;;;;;;;;;;16.3;49.1416;102132.9;;;;-85
2022/07/01 22:11:33;;;;;;;3.4;1.1;;;;;;;;;;;;;-84
2022/07/01 22:12:27;;;;;;;;;;;;;;;16.2;49.10938;102135.2;;;;-84
2022/07/01 22:17:31;;;;;;;;;;;;;;;16.15;49.84961;102129.3;;;;-83
2022/07/01 22:22:30;;;;;;;;;;;;;;;16.05;49.62207;102132.7;;;;-84
2022/07/01 22:27:34;;;;;;;;;;;;;;;16.01;49.83398;102124.9;;;;-84
2022/07/01 22:32:27;;;;;;;;;;;;;;;15.96;50.06543;102127.3;;;;-84
2022/07/01 22:37:28;;;;;;;;;;;;;;;15.89;49.60547;102131.1;;;;-84
2022/07/01 22:41:46;;;;;;;6.9;1.3;;;;;;;;;;;;;-85
2022/07/01 22:42:29;;;;;;;;;;;;;;;15.86;49.60254;102130.5;;;;-83
2022/07/01 22:47:26;;;;;;;;;;;;;;;15.8;49.5498;102135.8;;;;-86
2022/07/01 22:52:29;;;;;;;;;;;;;;;15.74;49.44141;102134.5;;;;-84
2022/07/01 22:57:34;;;;;;;;;;;;;;;15.65;49.54492;102134.1;;;;-84
2022/07/01 23:02:32;;;;;;;;;;;;;;;15.62;49.66602;102134.3;;;;-84
2022/07/01 23:07:26;;;;;;;;;;;;;;;15.57;49.8291;102138.6;;;;-84
2022/07/01 23:11:38;;;;;;;2;0.8;;;;;;;;;;;;;-85
2022/07/01 23:12:31;;;;;;;;;;;;;;;15.5;49.83301;102137.6;;;;-83
2022/07/01 23:17:32;;;;;;;;;;;;;;;15.43;50.24219;102126.9;;;;-83
2022/07/01 23:22:26;;;;;;;;;;;;;;;15.42;50.13867;102126.5;;;;-83
2022/07/01 23:27:32;;;;;;;;;;;;;;;15.37;50.46094;102129.7;;;;-85
2022/07/01 23:32:27;;;;;;;;;;;;;;;15.3;50.60059;102128;;;;-84
2022/07/01 23:37:29;;;;;;;;;;;;;;;15.29;50.38379;102134.2;;;;-84
2022/07/01 23:41:39;;;;;;;2.9;0.9;;;;;;;;;;;;;-84
2022/07/01 23:42:25;;;;;;;;;;;;;;;15.26;50.38086;102132.2;;;;-83
2022/07/01 23:47:28;;;;;;;;;;;;;;;15.21;50.02539;102136.5;;;;-84
2022/07/01 23:52:28;;;;;;;;;;;;;;;15.18;50.48535;102135.1;;;;-85
2022/07/01 23:57:26;;;;;;;;;;;;;;;15.14;50.88672;102133.2;;;;-82
